Tamarack — D5EY8 — position and weather

sailwx.info

Track history (hours):
 
Tides and Currents Weather Stations Pressure Air Temp Water Temp Dewpoint Dewpoint Depression Visibility Wind Speed Wind Dir Waves Ship Positions

Tamarack

Last reported at 2017-Dec-08 07:38 UTC. Time now 2017-Dec-12 04:48 UTC.
Position N 36°16' W 009°39'.

Length 189 m; draft 11.6 m.

Type: Cargo ship. MMSI: 636016198.

Date/timePositionNaut miles runAvg speedWind from/ knotsBaromVisibWave heightAir tempDewpointWater temp
2017-Dec-08 07:38N 36°16' W 009°39'512.9
2017-Dec-08 07:17N 36°21' W 009°41'1512.8
2017-Dec-08 06:04N 36°36' W 009°46'112.6
2017-Dec-08 06:00N 36°37' W 009°46'2412.6
2017-Dec-08 04:07N 36°60' W 009°53'512.6
2017-Dec-08 03:45N 37°04' W 009°54'1912.8
2017-Dec-08 02:14N 37°24' W 009°56'312.8
2017-Dec-08 02:00N 37°27' W 009°56'713.0
2017-Dec-08 01:29N 37°33' W 009°57'812.9
2017-Dec-08 00:51N 37°41' W 009°58'712.6
2017-Dec-08 00:16N 37°49' W 009°59'612.5
2017-Dec-07 23:48N 37°55' W 009°59'513.2
2017-Dec-07 23:24N 37°60' W 009°60'512.9
2017-Dec-07 23:00N 38°05' W 010°00'612.4
2017-Dec-07 22:30N 38°11' W 010°01'612.8
2017-Dec-07 22:00N 38°17' W 010°02'612.7
2017-Dec-07 21:30N 38°24' W 010°03'612.7
2017-Dec-07 21:00N 38°30' W 010°03'612.2
2017-Dec-07 20:30N 38°36' W 010°05'612.3
2017-Dec-07 20:00N 38°42' W 010°06'612.4
2017-Dec-07 19:30N 38°48' W 010°06'612.6
2017-Dec-07 19:00N 38°55' W 010°06'612.8
2017-Dec-07 18:30N 39°01' W 010°06'612.4
2017-Dec-07 18:00N 39°07' W 010°06'612.2
2017-Dec-07 17:30N 39°13' W 010°06'712.3
2017-Dec-07 16:58N 39°20' W 010°06'  
2017-Dec-04 10:30N 51°05' E 001°29'612.1
2017-Dec-04 10:00N 51°09' E 001°37'713.0
2017-Dec-04 09:30N 51°13' E 001°45'714.5
2017-Dec-04 09:01N 51°19' E 001°51'714.7
2017-Dec-04 08:30N 51°26' E 001°56'714.7
2017-Dec-04 08:00N 51°31' E 002°04'714.4
2017-Dec-04 07:30N 51°37' E 002°11'8811.6
2017-Dec-03 23:54N 52°46' E 003°42'612.7
2017-Dec-03 23:26N 52°50' E 003°48'612.9
2017-Dec-03 22:59N 52°54' E 003°54'26711.9
2017-Dec-03 00:35N 56°48' E 007°38'111.6
2017-Dec-03 00:30N 56°49' E 007°39'611.5
2017-Dec-02 23:59N 56°54' E 007°45'611.5
2017-Dec-02 23:29N 56°59' E 007°50'611.4
2017-Dec-02 22:59N 57°04' E 007°55'8610.7
2017-Dec-02 14:53N 57°48' E 010°13'410.5
2017-Dec-02 14:30N 57°48' E 010°21'510.4
2017-Dec-02 14:00N 57°48' E 010°30'510.4
2017-Dec-02 13:30N 57°48' E 010°40'4 8.6
2017-Dec-02 13:00N 57°45' E 010°46'4 8.4
2017-Dec-02 12:30N 57°41' E 010°47'4 8.5
2017-Dec-02 12:00N 57°39' E 010°54'611.4
2017-Dec-02 11:30N 57°36' E 011°03'611.6
2017-Dec-02 11:00N 57°33' E 011°13'611.8
2017-Dec-02 10:30N 57°30' E 011°22'611.4
2017-Dec-02 10:00N 57°25' E 011°27'611.8
2017-Dec-02 09:30N 57°20' E 011°31'612.1
2017-Dec-02 09:00N 57°14' E 011°35'612.3
2017-Dec-02 08:30N 57°08' E 011°39'612.5
2017-Dec-02 08:00N 57°02' E 011°43'2510.7
2017-Dec-02 05:42N 56°38' E 011°45'611.7
2017-Dec-02 05:13N 56°32' E 011°40'7811.4
2017-Dec-01 22:22N 55°18' E 011°03'511.9
2017-Dec-01 21:58N 55°13' E 011°06'611.7
2017-Dec-01 21:30N 55°09' E 010°60'612.3
2017-Dec-01 21:00N 55°03' E 010°60'612.1
2017-Dec-01 20:30N 54°57' E 010°56'613.0
2017-Dec-01 20:01N 54°52' E 010°50'713.1
2017-Dec-01 19:30N 54°45' E 010°48'5 9.3
2017-Dec-01 19:00N 54°40' E 010°48'611.8
2017-Dec-01 18:30N 54°37' E 010°56'612.6
2017-Dec-01 18:00N 54°36' E 011°07'612.8
2017-Dec-01 17:31N 54°34' E 011°17'612.9
2017-Dec-01 17:00N 54°31' E 011°27'612.8
2017-Dec-01 16:30N 54°28' E 011°37'612.7
2017-Dec-01 16:01N 54°26' E 011°47'612.6
2017-Dec-01 15:30N 54°26' E 011°58'712.4
2017-Dec-01 14:58N 54°26' E 012°09'7112.1
2017-Dec-01 09:07N 55°02' E 013°55'512.7
2017-Dec-01 08:42N 55°04' E 014°04'312.7
2017-Dec-01 08:30N 55°06' E 014°07'612.7
2017-Dec-01 08:00N 55°11' E 014°14'712.9
2017-Dec-01 07:29N 55°16' E 014°21'713.2
2017-Dec-01 06:58N 55°21' E 014°28'612.6
2017-Dec-01 06:30N 55°26' E 014°35'612.6
2017-Dec-01 06:00N 55°29' E 014°45'612.7
2017-Dec-01 05:30N 55°31' E 014°55'612.8
2017-Dec-01 05:00N 55°34' E 015°05'612.7
2017-Dec-01 04:31N 55°36' E 015°16'612.7
2017-Dec-01 04:00N 55°38' E 015°27'612.8
2017-Dec-01 03:30N 55°40' E 015°38'612.8
2017-Dec-01 03:00N 55°42' E 015°49'612.8
2017-Dec-01 02:30N 55°43' E 015°59'612.8
2017-Dec-01 02:01N 55°45' E 016°10'612.6
2017-Dec-01 01:30N 55°47' E 016°21'612.7
2017-Dec-01 01:00N 55°48' E 016°32'612.6
2017-Dec-01 00:31N 55°50' E 016°43'  
Track history (hours):
 
Tides and Currents Weather Stations Pressure Air Temp Water Temp Dewpoint Dewpoint Depression Visibility Wind Speed Wind Dir Waves Ship Positions

Tamarack

Last reported at 2017-Dec-08 07:38 UTC. Time now 2017-Dec-12 04:48 UTC.
Position N 36°16' W 009°39'.

Length 189 m; draft 11.6 m.

Type: Cargo ship. MMSI: 636016198.

Date/timePositionNaut miles runAvg speedWind from/ knotsBaromVisibWave heightAir tempDewpointWater temp
2017-Dec-08 07:38N 36°16' W 009°39'512.9
2017-Dec-08 07:17N 36°21' W 009°41'1512.8
2017-Dec-08 06:04N 36°36' W 009°46'112.6
2017-Dec-08 06:00N 36°37' W 009°46'2412.6
2017-Dec-08 04:07N 36°60' W 009°53'512.6
2017-Dec-08 03:45N 37°04' W 009°54'1912.8
2017-Dec-08 02:14N 37°24' W 009°56'312.8
2017-Dec-08 02:00N 37°27' W 009°56'713.0
2017-Dec-08 01:29N 37°33' W 009°57'812.9
2017-Dec-08 00:51N 37°41' W 009°58'712.6
2017-Dec-08 00:16N 37°49' W 009°59'612.5
2017-Dec-07 23:48N 37°55' W 009°59'513.2
2017-Dec-07 23:24N 37°60' W 009°60'512.9
2017-Dec-07 23:00N 38°05' W 010°00'612.4
2017-Dec-07 22:30N 38°11' W 010°01'612.8
2017-Dec-07 22:00N 38°17' W 010°02'612.7
2017-Dec-07 21:30N 38°24' W 010°03'612.7
2017-Dec-07 21:00N 38°30' W 010°03'612.2
2017-Dec-07 20:30N 38°36' W 010°05'612.3
2017-Dec-07 20:00N 38°42' W 010°06'612.4
2017-Dec-07 19:30N 38°48' W 010°06'612.6
2017-Dec-07 19:00N 38°55' W 010°06'612.8
2017-Dec-07 18:30N 39°01' W 010°06'612.4
2017-Dec-07 18:00N 39°07' W 010°06'612.2
2017-Dec-07 17:30N 39°13' W 010°06'712.3
2017-Dec-07 16:58N 39°20' W 010°06'  
2017-Dec-04 10:30N 51°05' E 001°29'612.1
2017-Dec-04 10:00N 51°09' E 001°37'713.0
2017-Dec-04 09:30N 51°13' E 001°45'714.5
2017-Dec-04 09:01N 51°19' E 001°51'714.7
2017-Dec-04 08:30N 51°26' E 001°56'714.7
2017-Dec-04 08:00N 51°31' E 002°04'714.4
2017-Dec-04 07:30N 51°37' E 002°11'8811.6
2017-Dec-03 23:54N 52°46' E 003°42'612.7
2017-Dec-03 23:26N 52°50' E 003°48'612.9
2017-Dec-03 22:59N 52°54' E 003°54'26711.9
2017-Dec-03 00:35N 56°48' E 007°38'111.6
2017-Dec-03 00:30N 56°49' E 007°39'611.5
2017-Dec-02 23:59N 56°54' E 007°45'611.5
2017-Dec-02 23:29N 56°59' E 007°50'611.4
2017-Dec-02 22:59N 57°04' E 007°55'8610.7
2017-Dec-02 14:53N 57°48' E 010°13'410.5
2017-Dec-02 14:30N 57°48' E 010°21'510.4
2017-Dec-02 14:00N 57°48' E 010°30'510.4
2017-Dec-02 13:30N 57°48' E 010°40'4 8.6
2017-Dec-02 13:00N 57°45' E 010°46'4 8.4
2017-Dec-02 12:30N 57°41' E 010°47'4 8.5
2017-Dec-02 12:00N 57°39' E 010°54'611.4
2017-Dec-02 11:30N 57°36' E 011°03'611.6
2017-Dec-02 11:00N 57°33' E 011°13'611.8
2017-Dec-02 10:30N 57°30' E 011°22'611.4
2017-Dec-02 10:00N 57°25' E 011°27'611.8
2017-Dec-02 09:30N 57°20' E 011°31'612.1
2017-Dec-02 09:00N 57°14' E 011°35'612.3
2017-Dec-02 08:30N 57°08' E 011°39'612.5
2017-Dec-02 08:00N 57°02' E 011°43'2510.7
2017-Dec-02 05:42N 56°38' E 011°45'611.7
2017-Dec-02 05:13N 56°32' E 011°40'7811.4
2017-Dec-01 22:22N 55°18' E 011°03'511.9
2017-Dec-01 21:58N 55°13' E 011°06'611.7
2017-Dec-01 21:30N 55°09' E 010°60'612.3
2017-Dec-01 21:00N 55°03' E 010°60'612.1
2017-Dec-01 20:30N 54°57' E 010°56'613.0
2017-Dec-01 20:01N 54°52' E 010°50'713.1
2017-Dec-01 19:30N 54°45' E 010°48'5 9.3
2017-Dec-01 19:00N 54°40' E 010°48'611.8
2017-Dec-01 18:30N 54°37' E 010°56'612.6
2017-Dec-01 18:00N 54°36' E 011°07'612.8
2017-Dec-01 17:31N 54°34' E 011°17'612.9
2017-Dec-01 17:00N 54°31' E 011°27'612.8
2017-Dec-01 16:30N 54°28' E 011°37'612.7
2017-Dec-01 16:01N 54°26' E 011°47'612.6
2017-Dec-01 15:30N 54°26' E 011°58'712.4
2017-Dec-01 14:58N 54°26' E 012°09'7112.1
2017-Dec-01 09:07N 55°02' E 013°55'512.7
2017-Dec-01 08:42N 55°04' E 014°04'312.7
2017-Dec-01 08:30N 55°06' E 014°07'612.7
2017-Dec-01 08:00N 55°11' E 014°14'712.9
2017-Dec-01 07:29N 55°16' E 014°21'713.2
2017-Dec-01 06:58N 55°21' E 014°28'612.6
2017-Dec-01 06:30N 55°26' E 014°35'612.6
2017-Dec-01 06:00N 55°29' E 014°45'612.7
2017-Dec-01 05:30N 55°31' E 014°55'612.8
2017-Dec-01 05:00N 55°34' E 015°05'612.7
2017-Dec-01 04:31N 55°36' E 015°16'612.7
2017-Dec-01 04:00N 55°38' E 015°27'612.8
2017-Dec-01 03:30N 55°40' E 015°38'612.8
2017-Dec-01 03:00N 55°42' E 015°49'612.8
2017-Dec-01 02:30N 55°43' E 015°59'612.8
2017-Dec-01 02:01N 55°45' E 016°10'612.6
2017-Dec-01 01:30N 55°47' E 016°21'612.7
2017-Dec-01 01:00N 55°48' E 016°32'612.6
2017-Dec-01 00:31N 55°50' E 016°43'  

Dump ship's entire track history